createdAt,value
2019-03-18T00:00:14.392Z,1003.51
2019-03-18T00:01:14.393Z,1003.48
2019-03-18T00:02:14.742Z,1003.48
2019-03-18T00:03:14.437Z,1003.54
2019-03-18T00:04:14.423Z,1003.61
2019-03-18T00:05:14.441Z,1003.56
2019-03-18T00:06:14.439Z,1003.59
2019-03-18T00:07:14.449Z,1003.63
2019-03-18T00:08:14.469Z,1003.62
2019-03-18T00:09:14.474Z,1003.67
2019-03-18T00:10:14.482Z,1003.66
2019-03-18T00:11:14.488Z,1003.66
2019-03-18T00:12:14.499Z,1003.66
2019-03-18T00:13:14.512Z,1003.71
2019-03-18T00:14:14.527Z,1003.74
2019-03-18T00:15:14.536Z,1003.81
2019-03-18T00:16:14.546Z,1003.84
2019-03-18T00:17:14.565Z,1003.80
2019-03-18T00:18:14.661Z,1003.86
2019-03-18T00:19:14.570Z,1003.80
2019-03-18T00:20:14.586Z,1003.81
2019-03-18T00:21:14.594Z,1003.84
2019-03-18T00:22:14.602Z,1003.81
2019-03-18T00:23:14.613Z,1003.79
2019-03-18T00:24:14.618Z,1003.78
2019-03-18T00:25:14.645Z,1003.83
2019-03-18T00:26:14.643Z,1003.83
2019-03-18T00:27:14.651Z,1003.91
2019-03-18T00:28:14.658Z,1003.88
2019-03-18T00:29:14.670Z,1003.82
2019-03-18T00:30:14.704Z,1003.83
2019-03-18T00:31:14.717Z,1003.81
2019-03-18T00:32:14.735Z,1003.80
2019-03-18T00:33:14.811Z,1003.85
2019-03-18T00:34:14.735Z,1003.78
2019-03-18T00:36:14.744Z,1003.73
2019-03-18T00:37:14.762Z,1003.65
2019-03-18T00:38:14.768Z,1003.64
2019-03-18T00:39:14.777Z,1003.61
2019-03-18T00:40:14.798Z,1003.64
2019-03-18T00:41:14.873Z,1003.65
2019-03-18T00:42:14.808Z,1003.69
2019-03-18T00:43:14.821Z,1003.76
2019-03-18T00:44:14.819Z,1003.72
2019-03-18T00:45:15.690Z,1003.74
2019-03-18T00:46:14.841Z,1003.75
2019-03-18T00:47:14.870Z,1003.74
2019-03-18T00:48:14.861Z,1003.77
2019-03-18T00:49:14.936Z,1003.79
2019-03-18T00:50:14.929Z,1003.78
2019-03-18T00:51:14.894Z,1003.79
2019-03-18T00:52:14.903Z,1003.79
2019-03-18T00:53:14.910Z,1003.78
2019-03-18T00:54:14.926Z,1003.79
2019-03-18T00:55:14.929Z,1003.79
2019-03-18T00:56:14.967Z,1003.82
2019-03-18T00:57:14.947Z,1003.87
2019-03-18T00:58:14.963Z,1003.81
2019-03-18T00:59:15.049Z,1003.84
2019-03-18T01:00:15.055Z,1003.81
2019-03-18T01:01:14.993Z,1003.80
2019-03-18T01:02:15.012Z,1003.83
2019-03-18T01:03:15.065Z,1003.84
2019-03-18T01:04:15.125Z,1003.86
2019-03-18T01:05:15.029Z,1003.88
2019-03-18T01:06:15.197Z,1003.89
2019-03-18T01:07:15.049Z,1003.91
2019-03-18T01:08:15.060Z,1004.01
2019-03-18T01:09:15.056Z,1003.93
2019-03-18T01:10:15.076Z,1003.88
2019-03-18T01:11:15.074Z,1003.98
2019-03-18T01:12:15.100Z,1003.98
2019-03-18T01:13:15.103Z,1004.05
2019-03-18T01:14:15.111Z,1003.99
2019-03-18T01:15:27.542Z,1004.03
2019-03-18T01:16:15.132Z,1004.00
2019-03-18T01:17:15.141Z,1003.97
2019-03-18T01:18:15.179Z,1003.99
2019-03-18T01:19:15.160Z,1003.99
2019-03-18T01:20:15.251Z,1003.96
2019-03-18T01:21:15.195Z,1003.89
2019-03-18T01:22:15.197Z,1003.85
2019-03-18T01:23:15.193Z,1003.84
2019-03-18T01:24:15.207Z,1003.88
2019-03-18T01:25:15.214Z,1003.92
2019-03-18T01:26:15.231Z,1003.85
2019-03-18T01:27:15.240Z,1003.81
2019-03-18T01:28:15.250Z,1003.93
2019-03-18T01:29:15.270Z,1003.92
2019-03-18T01:30:15.273Z,1003.92
2019-03-18T01:31:15.281Z,1003.96
2019-03-18T01:32:15.287Z,1003.87
2019-03-18T01:33:15.297Z,1003.98
2019-03-18T01:34:15.375Z,1003.98
2019-03-18T01:35:15.318Z,1003.96
2019-03-18T01:36:15.346Z,1003.97
2019-03-18T01:37:15.339Z,1003.94
2019-03-18T01:39:15.785Z,1003.92
2019-03-18T01:40:15.366Z,1003.87
2019-03-18T01:41:15.375Z,1003.90
2019-03-18T01:42:16.896Z,1003.94
2019-03-18T01:43:15.394Z,1003.95
2019-03-18T01:44:15.412Z,1003.98
2019-03-18T01:45:15.415Z,1003.87
2019-03-18T01:46:15.425Z,1003.90
2019-03-18T01:47:15.439Z,1003.85
2019-03-18T01:48:15.446Z,1003.94
2019-03-18T01:49:15.463Z,1003.93
2019-03-18T01:50:15.470Z,1003.85
2019-03-18T01:51:15.473Z,1003.83
2019-03-18T01:52:15.481Z,1003.85
2019-03-18T01:53:15.495Z,1003.87
2019-03-18T01:54:15.503Z,1003.84
2019-03-18T01:55:15.516Z,1003.85
2019-03-18T01:56:15.532Z,1003.85
2019-03-18T01:57:15.534Z,1003.90
2019-03-18T01:58:15.563Z,1003.84
2019-03-18T01:59:15.562Z,1003.83
2019-03-18T02:01:15.860Z,1003.92
2019-03-18T02:02:15.608Z,1003.92
2019-03-18T02:03:15.647Z,1003.89
2019-03-18T02:04:15.609Z,1003.86
2019-03-18T02:05:15.616Z,1003.92
2019-03-18T02:06:15.624Z,1003.95
2019-03-18T02:07:15.743Z,1003.96
2019-03-18T02:08:15.702Z,1003.98
2019-03-18T02:09:15.654Z,1004.02
2019-03-18T02:10:15.743Z,1004.07
2019-03-18T02:11:15.811Z,1004.10
2019-03-18T02:12:15.685Z,1004.16
2019-03-18T02:13:15.700Z,1004.18
2019-03-18T02:14:15.710Z,1004.19
2019-03-18T02:15:15.721Z,1004.24
2019-03-18T02:16:15.731Z,1004.22
2019-03-18T02:17:15.738Z,1004.21
2019-03-18T02:18:15.741Z,1004.25
2019-03-18T02:19:15.755Z,1004.28
2019-03-18T02:20:15.799Z,1004.28
2019-03-18T02:21:15.778Z,1004.30
2019-03-18T02:22:15.832Z,1004.35
2019-03-18T02:23:15.826Z,1004.32
2019-03-18T02:24:15.818Z,1004.29
2019-03-18T02:25:15.812Z,1004.27
2019-03-18T02:26:15.825Z,1004.33
2019-03-18T02:27:15.831Z,1004.32
2019-03-18T02:28:15.857Z,1004.29
2019-03-18T02:29:15.860Z,1004.34
2019-03-18T02:30:15.876Z,1004.32
2019-03-18T02:31:15.871Z,1004.32
2019-03-18T02:32:15.909Z,1004.38
2019-03-18T02:33:15.895Z,1004.42
2019-03-18T02:34:15.914Z,1004.38
2019-03-18T02:35:15.913Z,1004.39
2019-03-18T02:36:15.921Z,1004.40
2019-03-18T02:37:15.933Z,1004.36
2019-03-18T02:38:15.942Z,1004.33
2019-03-18T02:39:15.969Z,1004.32
2019-03-18T02:40:15.963Z,1004.34
2019-03-18T02:41:15.983Z,1004.30
2019-03-18T02:42:15.987Z,1004.32
2019-03-18T02:43:15.990Z,1004.38
2019-03-18T02:44:16.003Z,1004.36
2019-03-18T02:45:16.099Z,1004.37
2019-03-18T02:46:16.023Z,1004.34
2019-03-18T02:47:16.046Z,1004.31
2019-03-18T02:48:16.040Z,1004.38
2019-03-18T02:49:16.052Z,1004.39
2019-03-18T02:50:16.065Z,1004.41
2019-03-18T02:51:16.081Z,1004.44
2019-03-18T02:52:16.082Z,1004.46
2019-03-18T02:53:16.099Z,1004.47
2019-03-18T02:54:16.210Z,1004.44
2019-03-18T02:55:16.125Z,1004.49
2019-03-18T02:56:16.216Z,1004.46
2019-03-18T02:57:16.126Z,1004.50
2019-03-18T02:58:16.144Z,1004.51
2019-03-18T02:59:16.172Z,1004.49
2019-03-18T03:00:16.162Z,1004.48
2019-03-18T03:01:16.168Z,1004.50
2019-03-18T03:02:16.172Z,1004.56
2019-03-18T03:03:16.186Z,1004.58
2019-03-18T03:04:16.192Z,1004.58
2019-03-18T03:05:16.212Z,1004.53
2019-03-18T03:06:16.249Z,1004.47
2019-03-18T03:07:16.241Z,1004.56
2019-03-18T03:08:16.229Z,1004.62
2019-03-18T03:09:16.242Z,1004.58
2019-03-18T03:10:16.250Z,1004.60
2019-03-18T03:11:16.265Z,1004.60
2019-03-18T03:12:16.414Z,1004.68
2019-03-18T03:13:16.305Z,1004.61
2019-03-18T03:14:16.438Z,1004.67
2019-03-18T03:15:16.302Z,1004.72
2019-03-18T03:16:26.597Z,1004.74
2019-03-18T03:17:16.315Z,1004.77
2019-03-18T03:18:16.326Z,1004.74
2019-03-18T03:19:16.331Z,1004.77
2019-03-18T03:20:16.348Z,1004.81
2019-03-18T03:21:16.365Z,1004.82
2019-03-18T03:22:16.365Z,1004.88
2019-03-18T03:23:16.379Z,1004.79
2019-03-18T03:24:16.387Z,1004.85
2019-03-18T03:25:16.397Z,1004.83
2019-03-18T03:26:16.517Z,1004.85
2019-03-18T03:27:16.413Z,1004.81
2019-03-18T03:28:16.526Z,1004.79
2019-03-18T03:29:16.439Z,1004.77
2019-03-18T03:30:16.488Z,1004.86
2019-03-18T03:31:16.456Z,1004.84
2019-03-18T03:32:16.470Z,1004.78
2019-03-18T03:33:16.582Z,1004.88
2019-03-18T03:34:16.501Z,1004.96
2019-03-18T03:35:16.502Z,1004.83
2019-03-18T03:36:16.507Z,1004.86
2019-03-18T03:37:16.546Z,1004.90
2019-03-18T03:38:16.532Z,1004.87
2019-03-18T03:39:16.528Z,1004.86
2019-03-18T03:40:16.537Z,1004.88
2019-03-18T03:41:18.329Z,1004.93
2019-03-18T03:42:16.561Z,1004.96
2019-03-18T03:43:16.566Z,1005.00
2019-03-18T03:44:16.620Z,1004.99
2019-03-18T03:45:16.593Z,1004.98
2019-03-18T03:46:16.609Z,1005.01
2019-03-18T03:47:16.611Z,1005.02
2019-03-18T03:48:16.619Z,1004.95
2019-03-18T03:49:16.634Z,1004.94
2019-03-18T03:50:16.645Z,1004.99
2019-03-18T03:51:16.669Z,1005.03
2019-03-18T03:52:16.670Z,1005.00
2019-03-18T03:53:16.674Z,1005.01
2019-03-18T03:54:16.695Z,1005.00
2019-03-18T03:55:16.699Z,1004.96
2019-03-18T03:56:16.708Z,1005.00
2019-03-18T03:57:16.709Z,1005.06
2019-03-18T03:58:16.719Z,1005.03
2019-03-18T03:59:16.733Z,1005.01
2019-03-18T04:00:16.750Z,1005.05
2019-03-18T04:01:16.867Z,1005.05
2019-03-18T04:02:16.757Z,1005.07
2019-03-18T04:03:16.773Z,1005.07
2019-03-18T04:04:16.772Z,1005.08
2019-03-18T04:05:16.796Z,1005.06
2019-03-18T04:06:17.106Z,1005.09
2019-03-18T04:07:16.810Z,1005.09
2019-03-18T04:08:16.816Z,1005.04
2019-03-18T04:09:16.832Z,1005.03
2019-03-18T04:10:16.833Z,1005.08
2019-03-18T04:11:16.842Z,1005.09
2019-03-18T04:12:16.876Z,1005.15
2019-03-18T04:13:16.872Z,1005.16
2019-03-18T04:14:16.882Z,1005.18
2019-03-18T04:15:16.907Z,1005.22
2019-03-18T04:16:16.903Z,1005.19
2019-03-18T04:17:16.910Z,1005.19
2019-03-18T04:18:16.913Z,1005.17
2019-03-18T04:19:16.927Z,1005.18
2019-03-18T04:20:16.977Z,1005.21
2019-03-18T04:21:16.963Z,1005.15
2019-03-18T04:22:17.047Z,1005.19
2019-03-18T04:23:16.965Z,1005.18
2019-03-18T04:24:16.975Z,1005.19
2019-03-18T04:25:16.997Z,1005.26
2019-03-18T04:26:16.993Z,1005.31
2019-03-18T04:27:17.036Z,1005.33
2019-03-18T04:28:17.011Z,1005.37
2019-03-18T04:29:17.025Z,1005.41
2019-03-18T04:30:17.040Z,1005.37
2019-03-18T04:31:17.041Z,1005.42
2019-03-18T04:32:17.161Z,1005.38
2019-03-18T04:33:17.063Z,1005.38
2019-03-18T04:34:17.070Z,1005.39
2019-03-18T04:35:17.089Z,1005.49
2019-03-18T04:36:17.090Z,1005.49
2019-03-18T04:37:17.100Z,1005.56
2019-03-18T04:38:17.131Z,1005.57
2019-03-18T04:39:17.118Z,1005.61
2019-03-18T04:40:17.210Z,1005.63
2019-03-18T04:41:17.145Z,1005.61
2019-03-18T04:42:17.149Z,1005.72
2019-03-18T04:43:17.162Z,1005.68
2019-03-18T04:44:17.165Z,1005.69
2019-03-18T04:45:17.401Z,1005.71
2019-03-18T04:46:17.210Z,1005.74
2019-03-18T04:47:17.237Z,1005.76
2019-03-18T04:48:17.208Z,1005.75
2019-03-18T04:49:17.236Z,1005.70
2019-03-18T04:50:17.234Z,1005.71
2019-03-18T04:51:17.236Z,1005.70
2019-03-18T04:52:17.247Z,1005.71
2019-03-18T04:53:17.270Z,1005.68
2019-03-18T04:54:17.269Z,1005.68
2019-03-18T04:55:17.280Z,1005.69
2019-03-18T04:56:17.283Z,1005.73
2019-03-18T04:57:17.301Z,1005.75
2019-03-18T04:58:17.306Z,1005.76
2019-03-18T04:59:17.317Z,1005.78
2019-03-18T05:00:17.332Z,1005.74
2019-03-18T05:01:17.694Z,1005.84
2019-03-18T05:02:17.350Z,1005.86
2019-03-18T05:03:17.376Z,1005.81
2019-03-18T05:04:17.374Z,1005.84
2019-03-18T05:05:17.373Z,1005.79
2019-03-18T05:06:17.388Z,1005.78
2019-03-18T05:07:17.398Z,1005.71
2019-03-18T05:08:17.409Z,1005.79
2019-03-18T05:09:17.424Z,1005.80
2019-03-18T05:10:17.432Z,1005.85
2019-03-18T05:11:17.448Z,1005.80
2019-03-18T05:12:17.499Z,1005.88
2019-03-18T05:13:17.497Z,1005.86
2019-03-18T05:14:17.463Z,1005.89
2019-03-18T05:15:17.476Z,1005.88
2019-03-18T05:16:17.487Z,1005.90
2019-03-18T05:17:26.104Z,1005.94
2019-03-18T05:18:17.506Z,1005.91
2019-03-18T05:19:17.509Z,1005.93
2019-03-18T05:20:17.529Z,1005.95
2019-03-18T05:21:17.536Z,1005.97
2019-03-18T05:22:17.552Z,1005.97
2019-03-18T05:23:17.553Z,1005.97
2019-03-18T05:24:17.562Z,1005.90
2019-03-18T05:25:17.590Z,1005.93
2019-03-18T05:26:17.584Z,1005.96
2019-03-18T05:27:17.589Z,1005.95
2019-03-18T05:28:17.603Z,1005.94
2019-03-18T05:29:17.630Z,1005.96
2019-03-18T05:30:17.619Z,1006.01
2019-03-18T05:31:17.625Z,1005.95
2019-03-18T05:32:17.642Z,1006.01
2019-03-18T05:33:17.643Z,1006.02
2019-03-18T05:34:17.664Z,1006.07
2019-03-18T05:35:17.684Z,1006.06
2019-03-18T05:36:17.679Z,1006.04
2019-03-18T05:37:17.682Z,1006.07
2019-03-18T05:38:17.799Z,1006.12
2019-03-18T05:39:17.702Z,1006.17
2019-03-18T05:40:17.716Z,1006.19
2019-03-18T05:41:17.746Z,1006.18
2019-03-18T05:42:17.743Z,1006.25
2019-03-18T05:43:18.248Z,1006.24
2019-03-18T05:44:17.776Z,1006.28
2019-03-18T05:45:17.831Z,1006.25
2019-03-18T05:46:17.818Z,1006.35
2019-03-18T05:47:17.800Z,1006.37
2019-03-18T05:48:18.175Z,1006.44
2019-03-18T05:49:18.568Z,1006.43
2019-03-18T05:50:17.973Z,1006.45
2019-03-18T05:51:17.902Z,1006.43
2019-03-18T05:52:17.972Z,1006.49
2019-03-18T05:53:18.054Z,1006.51
2019-03-18T05:54:18.077Z,1006.54
2019-03-18T05:55:18.041Z,1006.55
2019-03-18T05:56:18.076Z,1006.55
2019-03-18T05:57:18.057Z,1006.55
2019-03-18T05:58:17.890Z,1006.49
2019-03-18T05:59:18.319Z,1006.58
2019-03-18T06:00:18.023Z,1006.60
2019-03-18T06:01:17.962Z,1006.56
2019-03-18T06:02:18.115Z,1006.54
2019-03-18T06:03:18.220Z,1006.56
2019-03-18T06:04:18.163Z,1006.58
2019-03-18T06:05:18.234Z,1006.56
2019-03-18T06:06:18.049Z,1006.59
2019-03-18T06:07:18.011Z,1006.63
2019-03-18T06:08:18.231Z,1006.71
2019-03-18T06:09:18.074Z,1006.76
2019-03-18T06:10:18.287Z,1006.69
2019-03-18T06:11:18.242Z,1006.79
2019-03-18T06:12:18.272Z,1006.77
2019-03-18T06:13:18.231Z,1006.82
2019-03-18T06:14:18.321Z,1006.83
2019-03-18T06:15:18.322Z,1006.83
2019-03-18T06:16:18.438Z,1006.86
2019-03-18T06:17:18.777Z,1006.92
2019-03-18T06:18:18.227Z,1006.86
2019-03-18T06:19:18.660Z,1006.87
2019-03-18T06:20:18.343Z,1006.93
2019-03-18T06:21:18.497Z,1006.91
2019-03-18T06:22:18.695Z,1007.01
2019-03-18T06:23:18.433Z,1007.01
2019-03-18T06:24:18.396Z,1006.99
2019-03-18T06:26:18.167Z,1007.00
2019-03-18T06:27:18.187Z,1007.02
2019-03-18T06:28:18.185Z,1007.11
2019-03-18T06:29:18.201Z,1007.11
2019-03-18T06:30:18.215Z,1007.10
2019-03-18T06:31:18.237Z,1007.15
2019-03-18T06:32:18.239Z,1007.18
2019-03-18T06:33:18.234Z,1007.12
2019-03-18T06:34:18.266Z,1007.16
2019-03-18T06:35:20.483Z,1007.16
2019-03-18T06:36:18.296Z,1007.17
2019-03-18T06:37:18.295Z,1007.15
2019-03-18T06:38:18.304Z,1007.17
2019-03-18T06:39:18.299Z,1007.25
2019-03-18T06:40:18.304Z,1007.24
2019-03-18T06:41:18.337Z,1007.22
2019-03-18T06:42:18.735Z,1007.16
2019-03-18T06:43:18.332Z,1007.18
2019-03-18T06:44:18.347Z,1007.22
2019-03-18T06:45:18.367Z,1007.23
2019-03-18T06:46:18.431Z,1007.31
2019-03-18T06:47:18.473Z,1007.27
2019-03-18T06:48:18.387Z,1007.28
2019-03-18T06:49:19.249Z,1007.29
2019-03-18T06:50:18.406Z,1007.37
2019-03-18T06:51:18.551Z,1007.37
2019-03-18T06:52:18.438Z,1007.41
2019-03-18T06:53:18.434Z,1007.44
2019-03-18T06:54:18.555Z,1007.47
2019-03-18T06:55:18.779Z,1007.46
2019-03-18T06:56:18.470Z,1007.48
2019-03-18T06:57:18.481Z,1007.51
2019-03-18T06:58:18.517Z,1007.53
2019-03-18T06:59:18.511Z,1007.53
2019-03-18T07:00:18.505Z,1007.60
2019-03-18T07:01:18.521Z,1007.60
2019-03-18T07:02:18.537Z,1007.56
2019-03-18T07:03:18.535Z,1007.64
2019-03-18T07:04:18.550Z,1007.64
2019-03-18T07:05:18.613Z,1007.70
2019-03-18T07:06:18.579Z,1007.71
2019-03-18T07:07:18.581Z,1007.66
2019-03-18T07:08:18.728Z,1007.76
2019-03-18T07:09:18.622Z,1007.70
2019-03-18T07:10:18.629Z,1007.71
2019-03-18T07:11:18.620Z,1007.75
2019-03-18T07:12:18.634Z,1007.76
2019-03-18T07:13:18.648Z,1007.75
2019-03-18T07:14:18.656Z,1007.80
2019-03-18T07:15:18.674Z,1007.87
2019-03-18T07:16:18.753Z,1007.85
2019-03-18T07:17:18.724Z,1007.86
2019-03-18T07:18:19.001Z,1007.89
2019-03-18T07:20:18.720Z,1007.92
2019-03-18T07:21:18.722Z,1007.90
2019-03-18T07:22:18.730Z,1007.98
2019-03-18T07:23:18.753Z,1007.99
2019-03-18T07:24:18.771Z,1007.94
2019-03-18T07:25:18.766Z,1007.94
2019-03-18T07:26:18.781Z,1007.98
2019-03-18T07:27:19.178Z,1008.01
2019-03-18T07:28:18.851Z,1007.96
2019-03-18T07:29:18.909Z,1008.03
2019-03-18T07:30:18.863Z,1008.06
2019-03-18T07:31:18.968Z,1008.07
2019-03-18T07:32:18.833Z,1008.14
2019-03-18T07:33:18.845Z,1008.14
2019-03-18T07:34:18.861Z,1008.13
2019-03-18T07:35:18.872Z,1008.14
2019-03-18T07:36:18.880Z,1008.20
2019-03-18T07:37:18.897Z,1008.18
2019-03-18T07:38:18.906Z,1008.19
2019-03-18T07:39:18.994Z,1008.33
2019-03-18T07:40:18.967Z,1008.23
2019-03-18T07:41:18.953Z,1008.25
2019-03-18T07:42:18.934Z,1008.26
2019-03-18T07:43:18.976Z,1008.30
2019-03-18T07:44:18.956Z,1008.27
2019-03-18T07:45:19.050Z,1008.36
2019-03-18T07:46:18.981Z,1008.40
2019-03-18T07:47:18.993Z,1008.36
2019-03-18T07:48:30.240Z,1008.32
2019-03-18T07:49:19.438Z,1008.37
2019-03-18T07:50:19.057Z,1008.37
2019-03-18T07:51:19.041Z,1008.41
2019-03-18T07:52:21.793Z,1008.39
2019-03-18T07:53:19.205Z,1008.45
2019-03-18T07:54:31.879Z,1008.37
2019-03-18T07:55:19.083Z,1008.52
2019-03-18T07:56:19.479Z,1008.43
2019-03-18T07:57:19.693Z,1008.48
2019-03-18T07:58:19.129Z,1008.46
2019-03-18T07:59:19.123Z,1008.50
2019-03-18T08:00:19.183Z,1008.42
2019-03-18T08:01:19.170Z,1008.47
2019-03-18T08:02:19.157Z,1008.57
2019-03-18T08:03:19.190Z,1008.61
2019-03-18T08:04:19.182Z,1008.65
2019-03-18T08:05:19.193Z,1008.56
2019-03-18T08:06:19.217Z,1008.58
2019-03-18T08:07:19.221Z,1008.77
2019-03-18T08:08:19.255Z,1008.68
2019-03-18T08:09:19.231Z,1008.86
2019-03-18T08:10:19.237Z,1008.77
2019-03-18T08:11:19.254Z,1008.73
2019-03-18T08:12:19.458Z,1008.73
2019-03-18T08:13:19.274Z,1008.71
2019-03-18T08:14:19.659Z,1008.67
2019-03-18T08:15:19.286Z,1008.72
2019-03-18T08:16:20.180Z,1008.75
2019-03-18T08:17:19.418Z,1008.76
2019-03-18T08:18:19.349Z,1008.82
2019-03-18T08:19:19.330Z,1008.84
2019-03-18T08:20:19.345Z,1008.81
2019-03-18T08:21:19.479Z,1008.90
2019-03-18T08:22:19.978Z,1008.83
2019-03-18T08:23:19.373Z,1008.89
2019-03-18T08:24:19.498Z,1008.90
2019-03-18T08:25:19.489Z,1008.92
2019-03-18T08:27:19.507Z,1008.90
2019-03-18T08:28:19.494Z,1008.90
2019-03-18T08:29:19.592Z,1008.95
2019-03-18T08:30:19.453Z,1008.97
2019-03-18T08:31:19.701Z,1008.97
2019-03-18T08:32:19.492Z,1008.90
2019-03-18T08:33:19.484Z,1008.94
2019-03-18T08:34:19.510Z,1008.99
2019-03-18T08:35:20.218Z,1008.95
2019-03-18T08:36:19.572Z,1008.94
2019-03-18T08:37:20.263Z,1009.00
2019-03-18T08:39:19.574Z,1009.06
2019-03-18T08:40:19.619Z,1009.07
2019-03-18T08:41:19.580Z,1008.98
2019-03-18T08:42:19.588Z,1009.02
2019-03-18T08:43:19.608Z,1009.04
2019-03-18T08:44:19.610Z,1009.02
2019-03-18T08:45:19.623Z,1009.05
2019-03-18T08:46:19.729Z,1009.06
2019-03-18T08:48:19.649Z,1009.06
2019-03-18T08:49:19.661Z,1009.05
2019-03-18T08:50:20.509Z,1009.05
2019-03-18T08:51:19.750Z,1009.06
2019-03-18T08:52:19.790Z,1009.09
2019-03-18T08:53:19.844Z,1009.23
2019-03-18T08:54:19.741Z,1009.15
2019-03-18T08:55:19.819Z,1009.21
2019-03-18T08:56:19.767Z,1009.18
2019-03-18T08:58:19.779Z,1009.19
2019-03-18T08:59:19.776Z,1009.21
2019-03-18T09:01:23.658Z,1009.27
2019-03-18T09:02:19.840Z,1009.23
2019-03-18T09:03:19.830Z,1009.32
2019-03-18T09:04:19.890Z,1009.26
2019-03-18T09:05:19.912Z,1009.29
2019-03-18T09:06:19.928Z,1009.29
2019-03-18T09:07:20.180Z,1009.28
2019-03-18T09:08:19.880Z,1009.31
2019-03-18T09:09:20.853Z,1009.36
2019-03-18T09:10:20.281Z,1009.43
2019-03-18T09:11:19.906Z,1009.41
2019-03-18T09:12:19.923Z,1009.44
2019-03-18T09:13:19.941Z,1009.46
2019-03-18T09:14:19.971Z,1009.43
2019-03-18T09:15:19.965Z,1009.48
2019-03-18T09:17:20.455Z,1009.48
2019-03-18T09:18:20.620Z,1009.54
2019-03-18T09:19:20.861Z,1009.54
2019-03-18T09:20:20.683Z,1009.51
2019-03-18T09:21:20.024Z,1009.49
2019-03-18T09:22:20.180Z,1009.47
2019-03-18T09:23:20.233Z,1009.53
2019-03-18T09:24:20.510Z,1009.53
2019-03-18T09:25:21.167Z,1009.54
2019-03-18T09:26:20.763Z,1009.51
2019-03-18T09:27:20.625Z,1009.52
2019-03-18T09:28:22.309Z,1009.52
2019-03-18T09:29:20.756Z,1009.60
2019-03-18T09:30:20.712Z,1009.52
2019-03-18T09:31:20.628Z,1009.53
2019-03-18T09:32:21.707Z,1009.70
2019-03-18T09:34:20.177Z,1009.60
2019-03-18T09:35:20.838Z,1009.65
2019-03-18T09:36:20.230Z,1009.66
2019-03-18T09:37:20.595Z,1009.62
2019-03-18T09:38:21.268Z,1009.73
2019-03-18T09:39:20.230Z,1009.75
2019-03-18T09:40:20.643Z,1009.75
2019-03-18T09:41:20.274Z,1009.71
2019-03-18T09:42:20.271Z,1009.74
2019-03-18T09:44:20.291Z,1009.78
2019-03-18T09:45:20.300Z,1009.76
2019-03-18T09:46:20.315Z,1009.82
2019-03-18T09:47:21.452Z,1009.79
2019-03-18T09:48:20.341Z,1009.83
2019-03-18T09:49:21.841Z,1009.77
2019-03-18T09:50:20.360Z,1009.75
2019-03-18T09:51:20.371Z,1009.79
2019-03-18T09:52:20.538Z,1009.85
2019-03-18T09:53:20.399Z,1009.88
2019-03-18T09:54:20.409Z,1009.91
2019-03-18T09:55:20.419Z,1009.95
2019-03-18T09:56:20.428Z,1009.86
2019-03-18T09:57:26.135Z,1009.91
2019-03-18T09:58:20.460Z,1009.97
2019-03-18T09:59:20.480Z,1009.87
2019-03-18T10:00:20.474Z,1009.97
2019-03-18T10:01:20.676Z,1009.95
2019-03-18T10:02:20.551Z,1010.01
2019-03-18T10:03:20.512Z,1010.01
2019-03-18T10:04:21.114Z,1010.05
2019-03-18T10:05:21.478Z,1009.97
2019-03-18T10:07:20.567Z,1009.99
2019-03-18T10:08:20.583Z,1009.96
2019-03-18T10:09:20.600Z,1009.98
2019-03-18T10:10:20.702Z,1010.02
2019-03-18T10:11:20.754Z,1009.97
2019-03-18T10:12:20.631Z,1010.07
2019-03-18T10:13:20.642Z,1009.95
2019-03-18T10:14:23.709Z,1010.05
2019-03-18T10:15:20.666Z,1010.07
2019-03-18T10:16:20.667Z,1010.01
2019-03-18T10:17:20.686Z,1009.97
2019-03-18T10:18:20.694Z,1009.98
2019-03-18T10:19:32.703Z,1010.02
2019-03-18T10:20:20.728Z,1010.06
2019-03-18T10:21:20.732Z,1010.15
2019-03-18T10:22:20.758Z,1010.12
2019-03-18T10:23:20.768Z,1010.17
2019-03-18T10:24:20.786Z,1010.08
2019-03-18T10:25:20.780Z,1010.09
2019-03-18T10:26:20.806Z,1010.11
2019-03-18T10:27:20.806Z,1010.10
2019-03-18T10:28:20.823Z,1010.16
2019-03-18T10:29:20.828Z,1010.23
2019-03-18T10:30:20.839Z,1010.17
2019-03-18T10:31:20.871Z,1010.23
2019-03-18T10:32:20.886Z,1010.15
2019-03-18T10:33:20.899Z,1010.24
2019-03-18T10:34:20.893Z,1010.36
2019-03-18T10:35:20.900Z,1010.23
2019-03-18T10:36:21.166Z,1010.24
2019-03-18T10:37:20.925Z,1010.25
2019-03-18T10:38:20.981Z,1010.31
2019-03-18T10:39:20.959Z,1010.23
2019-03-18T10:40:20.970Z,1010.27
2019-03-18T10:41:21.281Z,1010.36
2019-03-18T10:42:20.991Z,1010.30
2019-03-18T10:43:20.995Z,1010.27
2019-03-18T10:44:21.018Z,1010.23
2019-03-18T10:45:21.027Z,1010.17
2019-03-18T10:46:21.042Z,1010.27
2019-03-18T10:47:21.132Z,1010.27
2019-03-18T10:48:21.059Z,1010.32
2019-03-18T10:49:21.099Z,1010.33
2019-03-18T10:50:21.096Z,1010.25
2019-03-18T10:51:21.103Z,1010.24
2019-03-18T10:52:21.124Z,1010.34
2019-03-18T10:53:21.152Z,1010.31
2019-03-18T10:54:30.320Z,1010.24
2019-03-18T10:55:21.157Z,1010.25
2019-03-18T10:56:21.166Z,1010.33
2019-03-18T10:57:21.186Z,1010.27
2019-03-18T10:58:21.199Z,1010.36
2019-03-18T10:59:21.203Z,1010.33
2019-03-18T11:00:21.231Z,1010.41
2019-03-18T11:01:21.249Z,1010.33
2019-03-18T11:02:21.250Z,1010.37
2019-03-18T11:03:21.251Z,1010.39
2019-03-18T11:04:21.264Z,1010.36
2019-03-18T11:05:21.280Z,1010.36
2019-03-18T11:06:21.289Z,1010.32
2019-03-18T11:07:21.322Z,1010.40
2019-03-18T11:08:21.309Z,1010.40
2019-03-18T11:09:21.335Z,1010.37
2019-03-18T11:10:21.340Z,1010.39
2019-03-18T11:11:21.366Z,1010.42
2019-03-18T11:12:21.362Z,1010.49
2019-03-18T11:13:21.392Z,1010.53
2019-03-18T11:14:21.404Z,1010.65
2019-03-18T11:15:21.400Z,1010.53
2019-03-18T11:16:21.422Z,1010.49
2019-03-18T11:17:21.422Z,1010.61
2019-03-18T11:18:21.444Z,1010.58
2019-03-18T11:19:21.560Z,1010.54
2019-03-18T11:20:21.467Z,1010.60
2019-03-18T11:21:21.469Z,1010.60
2019-03-18T11:22:23.152Z,1010.62
2019-03-18T11:23:21.499Z,1010.69
2019-03-18T11:24:21.514Z,1010.68
2019-03-18T11:25:21.588Z,1010.66
2019-03-18T11:26:21.545Z,1010.58
2019-03-18T11:27:21.667Z,1010.69
2019-03-18T11:28:21.586Z,1010.79
2019-03-18T11:29:21.571Z,1010.87
2019-03-18T11:31:21.597Z,1011.05
2019-03-18T11:32:21.709Z,1011.26
2019-03-18T11:33:21.702Z,1011.27
2019-03-18T11:34:21.637Z,1011.32
2019-03-18T11:35:21.642Z,1011.42
2019-03-18T11:36:21.684Z,1011.36
2019-03-18T11:37:21.667Z,1011.40
2019-03-18T11:38:21.691Z,1011.42
2019-03-18T11:39:21.699Z,1011.40
2019-03-18T11:40:21.717Z,1011.42
2019-03-18T11:41:21.715Z,1011.43
2019-03-18T11:42:21.729Z,1011.43
2019-03-18T11:43:21.733Z,1011.39
2019-03-18T11:44:21.747Z,1011.43
2019-03-18T11:45:21.753Z,1011.43
2019-03-18T11:46:21.769Z,1011.37
2019-03-18T11:47:21.782Z,1011.45
2019-03-18T11:48:21.892Z,1011.44
2019-03-18T11:49:21.812Z,1011.43
2019-03-18T11:50:21.817Z,1011.40
2019-03-18T11:51:21.826Z,1011.35
2019-03-18T11:52:21.845Z,1011.38
2019-03-18T11:53:21.876Z,1011.42
2019-03-18T11:54:22.427Z,1011.41
2019-03-18T11:55:21.865Z,1011.44
2019-03-18T11:56:22.059Z,1011.44
2019-03-18T11:57:21.891Z,1011.50
2019-03-18T11:58:21.899Z,1011.49
2019-03-18T11:59:21.971Z,1011.42
2019-03-18T12:00:21.967Z,1011.43
2019-03-18T12:01:21.986Z,1011.43
2019-03-18T12:02:27.605Z,1011.39
2019-03-18T12:03:21.958Z,1011.42
2019-03-18T12:04:21.965Z,1011.40
2019-03-18T12:05:21.975Z,1011.39
2019-03-18T12:06:22.015Z,1011.39
2019-03-18T12:07:22.004Z,1011.37
2019-03-18T12:08:22.010Z,1011.32
2019-03-18T12:09:22.021Z,1011.34
2019-03-18T12:10:25.145Z,1011.30
2019-03-18T12:11:22.046Z,1011.28
2019-03-18T12:12:22.648Z,1011.27
2019-03-18T12:13:22.185Z,1011.27
2019-03-18T12:14:22.083Z,1011.26
2019-03-18T12:15:22.123Z,1011.32
2019-03-18T12:16:22.112Z,1011.30
2019-03-18T12:17:22.140Z,1011.28
2019-03-18T12:18:22.227Z,1011.33
2019-03-18T12:19:23.285Z,1011.31
2019-03-18T12:20:24.736Z,1011.31